sensor_id;sensor_type;location;lat;lon;timestamp;P1;durP1;ratioP1;P2;durP2;ratioP2
61962;SDS011;47927;42.646;23.096;2023-05-07T00:01:38;5.80;;;3.05;;
61962;SDS011;47927;42.646;23.096;2023-05-07T00:04:04;5.03;;;2.90;;
61962;SDS011;47927;42.646;23.096;2023-05-07T00:06:30;5.90;;;3.00;;
61962;SDS011;47927;42.646;23.096;2023-05-07T00:08:56;4.90;;;2.50;;
61962;SDS011;47927;42.646;23.096;2023-05-07T00:11:22;5.97;;;3.05;;
61962;SDS011;47927;42.646;23.096;2023-05-07T00:13:47;5.82;;;2.58;;
61962;SDS011;47927;42.646;23.096;2023-05-07T00:16:13;4.75;;;2.50;;
61962;SDS011;47927;42.646;23.096;2023-05-07T00:18:39;4.85;;;2.78;;
61962;SDS011;47927;42.646;23.096;2023-05-07T00:21:05;4.35;;;2.55;;
61962;SDS011;47927;42.646;23.096;2023-05-07T00:23:30;4.70;;;2.67;;
61962;SDS011;47927;42.646;23.096;2023-05-07T00:25:56;7.63;;;3.20;;
61962;SDS011;47927;42.646;23.096;2023-05-07T00:28:21;8.02;;;3.72;;
61962;SDS011;47927;42.646;23.096;2023-05-07T00:30:47;6.05;;;3.20;;
61962;SDS011;47927;42.646;23.096;2023-05-07T00:33:12;5.32;;;2.60;;
61962;SDS011;47927;42.646;23.096;2023-05-07T00:35:38;5.22;;;2.92;;
61962;SDS011;47927;42.646;23.096;2023-05-07T00:38:03;5.85;;;2.78;;
61962;SDS011;47927;42.646;23.096;2023-05-07T00:40:29;6.18;;;2.75;;
61962;SDS011;47927;42.646;23.096;2023-05-07T00:42:55;6.07;;;2.67;;
61962;SDS011;47927;42.646;23.096;2023-05-07T00:45:25;9.63;;;3.38;;
61962;SDS011;47927;42.646;23.096;2023-05-07T00:47:53;4.72;;;2.65;;
61962;SDS011;47927;42.646;23.096;2023-05-07T00:50:20;8.90;;;3.20;;
61962;SDS011;47927;42.646;23.096;2023-05-07T00:52:45;5.22;;;2.53;;
61962;SDS011;47927;42.646;23.096;2023-05-07T00:55:11;7.15;;;2.70;;
61962;SDS011;47927;42.646;23.096;2023-05-07T00:57:40;5.32;;;2.83;;
61962;SDS011;47927;42.646;23.096;2023-05-07T01:00:07;5.15;;;2.80;;
61962;SDS011;47927;42.646;23.096;2023-05-07T01:02:40;4.57;;;2.88;;
61962;SDS011;47927;42.646;23.096;2023-05-07T01:05:17;9.75;;;2.78;;
61962;SDS011;47927;42.646;23.096;2023-05-07T01:07:44;5.00;;;2.70;;
61962;SDS011;47927;42.646;23.096;2023-05-07T01:10:10;6.53;;;2.83;;
61962;SDS011;47927;42.646;23.096;2023-05-07T01:12:37;7.53;;;2.78;;
61962;SDS011;47927;42.646;23.096;2023-05-07T01:15:04;4.50;;;2.53;;
61962;SDS011;47927;42.646;23.096;2023-05-07T01:17:34;6.82;;;2.42;;
61962;SDS011;47927;42.646;23.096;2023-05-07T01:20:02;6.07;;;2.72;;
61962;SDS011;47927;42.646;23.096;2023-05-07T01:22:39;10.13;;;2.80;;
61962;SDS011;47927;42.646;23.096;2023-05-07T01:25:06;5.82;;;2.78;;
61962;SDS011;47927;42.646;23.096;2023-05-07T01:27:33;5.38;;;2.90;;
61962;SDS011;47927;42.646;23.096;2023-05-07T01:30:00;7.50;;;3.30;;
61962;SDS011;47927;42.646;23.096;2023-05-07T01:32:33;5.00;;;3.00;;
61962;SDS011;47927;42.646;23.096;2023-05-07T01:35:22;7.20;;;3.30;;
61962;SDS011;47927;42.646;23.096;2023-05-07T01:37:52;4.75;;;2.83;;
61962;SDS011;47927;42.646;23.096;2023-05-07T01:40:18;5.18;;;2.50;;
61962;SDS011;47927;42.646;23.096;2023-05-07T01:42:44;5.07;;;2.90;;
61962;SDS011;47927;42.646;23.096;2023-05-07T01:45:11;5.15;;;2.58;;
61962;SDS011;47927;42.646;23.096;2023-05-07T01:47:37;5.40;;;2.60;;
61962;SDS011;47927;42.646;23.096;2023-05-07T01:50:05;4.47;;;2.45;;
61962;SDS011;47927;42.646;23.096;2023-05-07T01:52:33;5.65;;;2.80;;
61962;SDS011;47927;42.646;23.096;2023-05-07T01:54:59;4.57;;;2.17;;
61962;SDS011;47927;42.646;23.096;2023-05-07T01:57:25;5.05;;;2.67;;
61962;SDS011;47927;42.646;23.096;2023-05-07T01:59:50;4.88;;;3.47;;
61962;SDS011;47927;42.646;23.096;2023-05-07T02:02:16;6.43;;;2.72;;
61962;SDS011;47927;42.646;23.096;2023-05-07T02:04:43;5.18;;;2.55;;
61962;SDS011;47927;42.646;23.096;2023-05-07T02:07:09;5.15;;;2.70;;
61962;SDS011;47927;42.646;23.096;2023-05-07T02:09:35;4.13;;;2.45;;
61962;SDS011;47927;42.646;23.096;2023-05-07T02:12:01;4.55;;;2.50;;
61962;SDS011;47927;42.646;23.096;2023-05-07T02:14:26;5.72;;;2.40;;
61962;SDS011;47927;42.646;23.096;2023-05-07T02:16:52;5.63;;;3.08;;
61962;SDS011;47927;42.646;23.096;2023-05-07T02:19:18;4.93;;;2.80;;
61962;SDS011;47927;42.646;23.096;2023-05-07T02:21:46;7.05;;;2.67;;
61962;SDS011;47927;42.646;23.096;2023-05-07T02:24:12;9.27;;;3.35;;
61962;SDS011;47927;42.646;23.096;2023-05-07T02:26:39;4.20;;;2.47;;
61962;SDS011;47927;42.646;23.096;2023-05-07T02:29:05;5.75;;;3.20;;
61962;SDS011;47927;42.646;23.096;2023-05-07T02:31:31;5.60;;;3.22;;
61962;SDS011;47927;42.646;23.096;2023-05-07T02:33:59;4.03;;;2.67;;
61962;SDS011;47927;42.646;23.096;2023-05-07T02:36:25;5.80;;;3.50;;
61962;SDS011;47927;42.646;23.096;2023-05-07T02:38:58;4.82;;;2.83;;
61962;SDS011;47927;42.646;23.096;2023-05-07T02:41:24;6.10;;;2.72;;
61962;SDS011;47927;42.646;23.096;2023-05-07T02:43:50;7.78;;;3.05;;
61962;SDS011;47927;42.646;23.096;2023-05-07T02:46:16;6.18;;;3.35;;
61962;SDS011;47927;42.646;23.096;2023-05-07T02:48:45;7.90;;;2.95;;
61962;SDS011;47927;42.646;23.096;2023-05-07T02:51:11;8.85;;;3.42;;
61962;SDS011;47927;42.646;23.096;2023-05-07T02:53:39;5.38;;;2.85;;
61962;SDS011;47927;42.646;23.096;2023-05-07T02:56:04;5.28;;;3.15;;
61962;SDS011;47927;42.646;23.096;2023-05-07T02:58:31;5.63;;;3.00;;
61962;SDS011;47927;42.646;23.096;2023-05-07T03:00:58;8.02;;;2.80;;
61962;SDS011;47927;42.646;23.096;2023-05-07T03:03:37;6.47;;;2.85;;
61962;SDS011;47927;42.646;23.096;2023-05-07T03:06:03;4.88;;;2.85;;
61962;SDS011;47927;42.646;23.096;2023-05-07T03:08:28;4.80;;;2.60;;
61962;SDS011;47927;42.646;23.096;2023-05-07T03:10:54;5.93;;;3.00;;
61962;SDS011;47927;42.646;23.096;2023-05-07T03:13:19;5.38;;;3.00;;
61962;SDS011;47927;42.646;23.096;2023-05-07T03:15:46;4.30;;;2.53;;
61962;SDS011;47927;42.646;23.096;2023-05-07T03:18:13;4.57;;;3.00;;
61962;SDS011;47927;42.646;23.096;2023-05-07T03:20:38;4.75;;;2.75;;
61962;SDS011;47927;42.646;23.096;2023-05-07T03:23:04;4.70;;;2.75;;
61962;SDS011;47927;42.646;23.096;2023-05-07T03:25:29;4.43;;;2.60;;
61962;SDS011;47927;42.646;23.096;2023-05-07T03:27:55;3.80;;;2.47;;
61962;SDS011;47927;42.646;23.096;2023-05-07T03:32:51;4.88;;;2.78;;
61962;SDS011;47927;42.646;23.096;2023-05-07T03:35:16;4.50;;;2.75;;
61962;SDS011;47927;42.646;23.096;2023-05-07T03:37:42;5.20;;;3.25;;
61962;SDS011;47927;42.646;23.096;2023-05-07T03:40:09;7.28;;;2.95;;
61962;SDS011;47927;42.646;23.096;2023-05-07T03:42:42;5.53;;;3.17;;
61962;SDS011;47927;42.646;23.096;2023-05-07T03:45:08;5.03;;;3.05;;
61962;SDS011;47927;42.646;23.096;2023-05-07T03:47:35;5.57;;;3.17;;
61962;SDS011;47927;42.646;23.096;2023-05-07T03:50:01;4.53;;;3.08;;
61962;SDS011;47927;42.646;23.096;2023-05-07T03:52:26;4.95;;;2.85;;
61962;SDS011;47927;42.646;23.096;2023-05-07T03:54:54;7.45;;;3.13;;
61962;SDS011;47927;42.646;23.096;2023-05-07T03:57:20;5.25;;;3.30;;
61962;SDS011;47927;42.646;23.096;2023-05-07T03:59:46;5.63;;;2.95;;
61962;SDS011;47927;42.646;23.096;2023-05-07T04:02:12;5.10;;;2.75;;
61962;SDS011;47927;42.646;23.096;2023-05-07T04:04:38;3.72;;;2.22;;
61962;SDS011;47927;42.646;23.096;2023-05-07T04:07:04;4.03;;;2.58;;
61962;SDS011;47927;42.646;23.096;2023-05-07T04:09:33;5.22;;;2.80;;
61962;SDS011;47927;42.646;23.096;2023-05-07T04:11:58;8.38;;;3.15;;
61962;SDS011;47927;42.646;23.096;2023-05-07T04:14:24;5.47;;;2.65;;
61962;SDS011;47927;42.646;23.096;2023-05-07T04:16:50;4.07;;;2.42;;
61962;SDS011;47927;42.646;23.096;2023-05-07T04:19:15;4.15;;;2.38;;
61962;SDS011;47927;42.646;23.096;2023-05-07T04:21:41;6.95;;;2.40;;
61962;SDS011;47927;42.646;23.096;2023-05-07T04:24:06;5.15;;;2.47;;
61962;SDS011;47927;42.646;23.096;2023-05-07T04:26:32;7.13;;;2.88;;
61962;SDS011;47927;42.646;23.096;2023-05-07T04:28:59;4.47;;;2.92;;
61962;SDS011;47927;42.646;23.096;2023-05-07T04:31:29;4.40;;;2.40;;
61962;SDS011;47927;42.646;23.096;2023-05-07T04:33:55;5.40;;;2.60;;
61962;SDS011;47927;42.646;23.096;2023-05-07T04:36:21;6.32;;;2.88;;
61962;SDS011;47927;42.646;23.096;2023-05-07T04:38:56;4.80;;;2.90;;
61962;SDS011;47927;42.646;23.096;2023-05-07T04:41:21;6.28;;;3.55;;
61962;SDS011;47927;42.646;23.096;2023-05-07T04:43:48;5.38;;;3.10;;
61962;SDS011;47927;42.646;23.096;2023-05-07T04:46:16;5.20;;;3.20;;
61962;SDS011;47927;42.646;23.096;2023-05-07T04:48:42;5.22;;;2.92;;
61962;SDS011;47927;42.646;23.096;2023-05-07T04:51:08;5.40;;;3.00;;
61962;SDS011;47927;42.646;23.096;2023-05-07T04:53:33;7.35;;;3.67;;
61962;SDS011;47927;42.646;23.096;2023-05-07T04:55:59;5.30;;;3.30;;
61962;SDS011;47927;42.646;23.096;2023-05-07T04:58:31;7.30;;;3.35;;
61962;SDS011;47927;42.646;23.096;2023-05-07T05:00:57;6.15;;;3.60;;
61962;SDS011;47927;42.646;23.096;2023-05-07T05:03:27;8.00;;;3.95;;
61962;SDS011;47927;42.646;23.096;2023-05-07T05:05:52;6.88;;;3.83;;
61962;SDS011;47927;42.646;23.096;2023-05-07T05:08:19;7.40;;;3.72;;
61962;SDS011;47927;42.646;23.096;2023-05-07T05:10:45;6.07;;;3.85;;
61962;SDS011;47927;42.646;23.096;2023-05-07T05:13:10;6.20;;;4.35;;
61962;SDS011;47927;42.646;23.096;2023-05-07T05:15:38;11.35;;;4.18;;
61962;SDS011;47927;42.646;23.096;2023-05-07T05:18:04;7.38;;;4.03;;
61962;SDS011;47927;42.646;23.096;2023-05-07T05:20:30;5.93;;;3.78;;
61962;SDS011;47927;42.646;23.096;2023-05-07T05:22:55;6.15;;;3.90;;
61962;SDS011;47927;42.646;23.096;2023-05-07T05:25:21;7.53;;;3.70;;
61962;SDS011;47927;42.646;23.096;2023-05-07T05:27:46;6.45;;;3.67;;
61962;SDS011;47927;42.646;23.096;2023-05-07T05:30:12;4.78;;;3.28;;
61962;SDS011;47927;42.646;23.096;2023-05-07T05:32:38;8.32;;;4.00;;
61962;SDS011;47927;42.646;23.096;2023-05-07T05:35:05;7.22;;;3.90;;
61962;SDS011;47927;42.646;23.096;2023-05-07T05:37:31;4.53;;;3.47;;
61962;SDS011;47927;42.646;23.096;2023-05-07T05:39:58;8.80;;;3.90;;
61962;SDS011;47927;42.646;23.096;2023-05-07T05:42:25;5.20;;;3.78;;
61962;SDS011;47927;42.646;23.096;2023-05-07T05:44:51;7.20;;;3.63;;
61962;SDS011;47927;42.646;23.096;2023-05-07T05:47:16;6.60;;;3.60;;
61962;SDS011;47927;42.646;23.096;2023-05-07T05:49:42;6.50;;;3.80;;
61962;SDS011;47927;42.646;23.096;2023-05-07T05:52:11;6.32;;;3.88;;
61962;SDS011;47927;42.646;23.096;2023-05-07T05:54:37;5.72;;;4.05;;
61962;SDS011;47927;42.646;23.096;2023-05-07T05:57:03;6.75;;;4.30;;
61962;SDS011;47927;42.646;23.096;2023-05-07T05:59:30;8.02;;;4.15;;
61962;SDS011;47927;42.646;23.096;2023-05-07T06:01:56;8.55;;;4.43;;
61962;SDS011;47927;42.646;23.096;2023-05-07T06:04:22;6.97;;;4.03;;
61962;SDS011;47927;42.646;23.096;2023-05-07T06:06:47;9.55;;;4.13;;
61962;SDS011;47927;42.646;23.096;2023-05-07T06:09:13;14.18;;;4.07;;
61962;SDS011;47927;42.646;23.096;2023-05-07T06:14:07;10.68;;;3.92;;
61962;SDS011;47927;42.646;23.096;2023-05-07T06:16:33;8.57;;;3.83;;
61962;SDS011;47927;42.646;23.096;2023-05-07T06:18:59;7.47;;;4.53;;
61962;SDS011;47927;42.646;23.096;2023-05-07T06:21:25;7.00;;;4.03;;
61962;SDS011;47927;42.646;23.096;2023-05-07T06:23:50;9.00;;;4.40;;
61962;SDS011;47927;42.646;23.096;2023-05-07T06:26:17;9.70;;;4.20;;
61962;SDS011;47927;42.646;23.096;2023-05-07T06:28:45;10.65;;;3.95;;
61962;SDS011;47927;42.646;23.096;2023-05-07T06:31:16;8.82;;;3.80;;
61962;SDS011;47927;42.646;23.096;2023-05-07T06:33:51;9.75;;;4.45;;
61962;SDS011;47927;42.646;23.096;2023-05-07T06:36:17;6.57;;;4.30;;
61962;SDS011;47927;42.646;23.096;2023-05-07T06:38:44;7.03;;;4.13;;
61962;SDS011;47927;42.646;23.096;2023-05-07T06:41:09;8.13;;;4.15;;
61962;SDS011;47927;42.646;23.096;2023-05-07T06:46:36;6.67;;;3.83;;
61962;SDS011;47927;42.646;23.096;2023-05-07T06:49:03;6.80;;;3.83;;
61962;SDS011;47927;42.646;23.096;2023-05-07T06:51:29;6.35;;;3.70;;
61962;SDS011;47927;42.646;23.096;2023-05-07T06:53:58;9.02;;;3.72;;
61962;SDS011;47927;42.646;23.096;2023-05-07T06:56:24;9.95;;;4.10;;
61962;SDS011;47927;42.646;23.096;2023-05-07T06:58:50;8.32;;;4.05;;
61962;SDS011;47927;42.646;23.096;2023-05-07T07:01:16;8.40;;;3.83;;
61962;SDS011;47927;42.646;23.096;2023-05-07T07:03:43;13.07;;;5.20;;
61962;SDS011;47927;42.646;23.096;2023-05-07T07:06:08;15.15;;;4.07;;
61962;SDS011;47927;42.646;23.096;2023-05-07T07:08:34;12.27;;;4.07;;
61962;SDS011;47927;42.646;23.096;2023-05-07T07:11:00;6.03;;;3.95;;
61962;SDS011;47927;42.646;23.096;2023-05-07T07:13:25;6.85;;;3.70;;
61962;SDS011;47927;42.646;23.096;2023-05-07T07:15:51;7.75;;;3.90;;
61962;SDS011;47927;42.646;23.096;2023-05-07T07:18:18;9.40;;;3.83;;
61962;SDS011;47927;42.646;23.096;2023-05-07T07:20:46;11.48;;;3.92;;
61962;SDS011;47927;42.646;23.096;2023-05-07T07:23:12;7.28;;;3.60;;
61962;SDS011;47927;42.646;23.096;2023-05-07T07:25:38;7.97;;;3.60;;
61962;SDS011;47927;42.646;23.096;2023-05-07T07:28:04;8.68;;;3.20;;
61962;SDS011;47927;42.646;23.096;2023-05-07T07:30:30;7.28;;;3.30;;
61962;SDS011;47927;42.646;23.096;2023-05-07T07:32:56;12.73;;;3.40;;
61962;SDS011;47927;42.646;23.096;2023-05-07T07:35:31;8.60;;;3.65;;
61962;SDS011;47927;42.646;23.096;2023-05-07T07:37:59;8.90;;;3.00;;
61962;SDS011;47927;42.646;23.096;2023-05-07T07:40:25;12.82;;;3.83;;
61962;SDS011;47927;42.646;23.096;2023-05-07T07:42:51;6.28;;;3.17;;
61962;SDS011;47927;42.646;23.096;2023-05-07T07:45:17;8.50;;;2.95;;
61962;SDS011;47927;42.646;23.096;2023-05-07T07:47:46;6.63;;;2.88;;
61962;SDS011;47927;42.646;23.096;2023-05-07T07:50:11;7.97;;;3.00;;
61962;SDS011;47927;42.646;23.096;2023-05-07T07:52:37;7.88;;;2.92;;
61962;SDS011;47927;42.646;23.096;2023-05-07T07:55:03;6.72;;;2.97;;
61962;SDS011;47927;42.646;23.096;2023-05-07T07:57:30;6.82;;;2.55;;
61962;SDS011;47927;42.646;23.096;2023-05-07T07:59:55;9.55;;;3.22;;
61962;SDS011;47927;42.646;23.096;2023-05-07T08:02:21;7.68;;;2.78;;
61962;SDS011;47927;42.646;23.096;2023-05-07T08:04:48;7.07;;;2.67;;
61962;SDS011;47927;42.646;23.096;2023-05-07T08:07:14;6.13;;;3.05;;
61962;SDS011;47927;42.646;23.096;2023-05-07T08:09:43;4.38;;;2.90;;
61962;SDS011;47927;42.646;23.096;2023-05-07T08:12:09;9.43;;;3.20;;
61962;SDS011;47927;42.646;23.096;2023-05-07T08:14:35;9.52;;;2.88;;
61962;SDS011;47927;42.646;23.096;2023-05-07T08:17:03;7.85;;;3.00;;
61962;SDS011;47927;42.646;23.096;2023-05-07T08:19:29;7.88;;;3.13;;
61962;SDS011;47927;42.646;23.096;2023-05-07T08:21:55;5.85;;;2.88;;
61962;SDS011;47927;42.646;23.096;2023-05-07T08:24:22;7.22;;;3.30;;
61962;SDS011;47927;42.646;23.096;2023-05-07T08:26:48;6.95;;;2.80;;
61962;SDS011;47927;42.646;23.096;2023-05-07T08:29:21;8.30;;;3.00;;
61962;SDS011;47927;42.646;23.096;2023-05-07T08:31:56;11.00;;;3.30;;
61962;SDS011;47927;42.646;23.096;2023-05-07T08:34:21;6.60;;;3.10;;
61962;SDS011;47927;42.646;23.096;2023-05-07T08:36:49;12.37;;;2.70;;
61962;SDS011;47927;42.646;23.096;2023-05-07T08:39:17;7.45;;;2.67;;
61962;SDS011;47927;42.646;23.096;2023-05-07T08:41:45;10.35;;;3.50;;
61962;SDS011;47927;42.646;23.096;2023-05-07T08:44:12;6.70;;;3.08;;
61962;SDS011;47927;42.646;23.096;2023-05-07T08:46:44;8.13;;;3.10;;
61962;SDS011;47927;42.646;23.096;2023-05-07T08:49:15;5.50;;;2.70;;
61962;SDS011;47927;42.646;23.096;2023-05-07T08:51:45;5.72;;;3.00;;
61962;SDS011;47927;42.646;23.096;2023-05-07T08:54:12;5.60;;;2.97;;
61962;SDS011;47927;42.646;23.096;2023-05-07T08:56:41;4.00;;;2.95;;
61962;SDS011;47927;42.646;23.096;2023-05-07T08:59:07;9.15;;;2.95;;
61962;SDS011;47927;42.646;23.096;2023-05-07T09:01:32;5.43;;;2.58;;
61962;SDS011;47927;42.646;23.096;2023-05-07T09:04:00;9.35;;;2.42;;
61962;SDS011;47927;42.646;23.096;2023-05-07T09:06:28;8.85;;;2.13;;
61962;SDS011;47927;42.646;23.096;2023-05-07T09:08:54;8.30;;;2.67;;
61962;SDS011;47927;42.646;23.096;2023-05-07T09:11:23;8.35;;;2.80;;
61962;SDS011;47927;42.646;23.096;2023-05-07T09:16:19;5.70;;;2.58;;
61962;SDS011;47927;42.646;23.096;2023-05-07T09:18:46;6.18;;;2.67;;
61962;SDS011;47927;42.646;23.096;2023-05-07T09:21:17;6.10;;;2.65;;
61962;SDS011;47927;42.646;23.096;2023-05-07T09:23:45;8.98;;;2.33;;
61962;SDS011;47927;42.646;23.096;2023-05-07T09:26:14;5.95;;;2.75;;
61962;SDS011;47927;42.646;23.096;2023-05-07T09:28:41;4.65;;;2.85;;
61962;SDS011;47927;42.646;23.096;2023-05-07T09:31:09;9.30;;;3.00;;
61962;SDS011;47927;42.646;23.096;2023-05-07T09:33:36;4.93;;;3.00;;
61962;SDS011;47927;42.646;23.096;2023-05-07T09:36:06;5.85;;;3.30;;
61962;SDS011;47927;42.646;23.096;2023-05-07T09:38:34;4.78;;;2.92;;
61962;SDS011;47927;42.646;23.096;2023-05-07T09:41:05;5.97;;;2.80;;
61962;SDS011;47927;42.646;23.096;2023-05-07T09:43:39;5.60;;;3.10;;
61962;SDS011;47927;42.646;23.096;2023-05-07T09:46:14;5.20;;;3.22;;
61962;SDS011;47927;42.646;23.096;2023-05-07T09:48:45;4.50;;;3.03;;
61962;SDS011;47927;42.646;23.096;2023-05-07T09:51:18;4.80;;;3.15;;
61962;SDS011;47927;42.646;23.096;2023-05-07T09:53:50;4.70;;;3.25;;
61962;SDS011;47927;42.646;23.096;2023-05-07T09:56:17;4.47;;;2.55;;
61962;SDS011;47927;42.646;23.096;2023-05-07T09:58:43;5.65;;;2.97;;
61962;SDS011;47927;42.646;23.096;2023-05-07T10:01:12;6.18;;;2.78;;
61962;SDS011;47927;42.646;23.096;2023-05-07T10:03:40;5.28;;;2.80;;
61962;SDS011;47927;42.646;23.096;2023-05-07T10:06:08;5.13;;;3.03;;
61962;SDS011;47927;42.646;23.096;2023-05-07T10:08:36;6.07;;;2.95;;
61962;SDS011;47927;42.646;23.096;2023-05-07T10:11:03;5.80;;;2.60;;
61962;SDS011;47927;42.646;23.096;2023-05-07T10:13:30;4.50;;;2.83;;
61962;SDS011;47927;42.646;23.096;2023-05-07T10:15:59;4.70;;;2.60;;
61962;SDS011;47927;42.646;23.096;2023-05-07T10:18:30;5.22;;;2.90;;
61962;SDS011;47927;42.646;23.096;2023-05-07T10:21:16;5.00;;;2.55;;
61962;SDS011;47927;42.646;23.096;2023-05-07T10:24:04;5.57;;;2.85;;
61962;SDS011;47927;42.646;23.096;2023-05-07T10:26:31;4.67;;;2.50;;
61962;SDS011;47927;42.646;23.096;2023-05-07T10:32:14;3.20;;;2.33;;
61962;SDS011;47927;42.646;23.096;2023-05-07T10:35:06;4.65;;;2.55;;
61962;SDS011;47927;42.646;23.096;2023-05-07T10:37:39;5.47;;;2.40;;
61962;SDS011;47927;42.646;23.096;2023-05-07T10:40:05;4.38;;;2.35;;
61962;SDS011;47927;42.646;23.096;2023-05-07T10:42:33;4.45;;;2.75;;
61962;SDS011;47927;42.646;23.096;2023-05-07T10:45:10;6.75;;;2.92;;
61962;SDS011;47927;42.646;23.096;2023-05-07T10:48:02;4.95;;;2.67;;
61962;SDS011;47927;42.646;23.096;2023-05-07T10:50:42;3.78;;;2.42;;
61962;SDS011;47927;42.646;23.096;2023-05-07T10:58:49;4.38;;;2.58;;
61962;SDS011;47927;42.646;23.096;2023-05-07T11:05:18;5.80;;;2.00;;
61962;SDS011;47927;42.646;23.096;2023-05-07T11:08:10;7.47;;;2.50;;
61962;SDS011;47927;42.646;23.096;2023-05-07T11:11:01;7.07;;;3.13;;
61962;SDS011;47927;42.646;23.096;2023-05-07T11:13:47;7.18;;;2.75;;
61962;SDS011;47927;42.646;23.096;2023-05-07T11:16:24;3.83;;;2.60;;
61962;SDS011;47927;42.646;23.096;2023-05-07T11:19:12;4.28;;;2.75;;
61962;SDS011;47927;42.646;23.096;2023-05-07T11:21:42;5.28;;;2.20;;
61962;SDS011;47927;42.646;23.096;2023-05-07T11:24:27;10.75;;;3.20;;
61962;SDS011;47927;42.646;23.096;2023-05-07T11:27:00;4.38;;;2.50;;
61962;SDS011;47927;42.646;23.096;2023-05-07T11:29:28;4.22;;;2.63;;
61962;SDS011;47927;42.646;23.096;2023-05-07T11:32:02;3.67;;;2.13;;
61962;SDS011;47927;42.646;23.096;2023-05-07T11:34:34;4.18;;;2.05;;
61962;SDS011;47927;42.646;23.096;2023-05-07T11:37:00;5.40;;;2.20;;
61962;SDS011;47927;42.646;23.096;2023-05-07T11:39:42;6.85;;;2.47;;
61962;SDS011;47927;42.646;23.096;2023-05-07T11:42:07;3.95;;;2.40;;
61962;SDS011;47927;42.646;23.096;2023-05-07T11:44:50;4.45;;;2.30;;
61962;SDS011;47927;42.646;23.096;2023-05-07T11:47:19;3.47;;;2.28;;
61962;SDS011;47927;42.646;23.096;2023-05-07T11:49:48;4.70;;;2.42;;
61962;SDS011;47927;42.646;23.096;2023-05-07T11:52:16;5.55;;;2.65;;
61962;SDS011;47927;42.646;23.096;2023-05-07T11:54:48;3.92;;;2.40;;
61962;SDS011;47927;42.646;23.096;2023-05-07T11:57:15;6.82;;;2.67;;
61962;SDS011;47927;42.646;23.096;2023-05-07T11:59:40;4.78;;;2.45;;
61962;SDS011;47927;42.646;23.096;2023-05-07T12:02:06;3.25;;;2.10;;
61962;SDS011;47927;42.646;23.096;2023-05-07T12:04:33;3.97;;;2.30;;
61962;SDS011;47927;42.646;23.096;2023-05-07T12:06:58;5.43;;;2.30;;
61962;SDS011;47927;42.646;23.096;2023-05-07T12:09:24;4.15;;;2.25;;
61962;SDS011;47927;42.646;23.096;2023-05-07T12:15:00;6.78;;;2.53;;
61962;SDS011;47927;42.646;23.096;2023-05-07T12:21:19;5.07;;;2.75;;
61962;SDS011;47927;42.646;23.096;2023-05-07T12:23:56;7.90;;;2.58;;
61962;SDS011;47927;42.646;23.096;2023-05-07T12:26:21;4.50;;;2.22;;
61962;SDS011;47927;42.646;23.096;2023-05-07T12:28:49;4.85;;;2.10;;
61962;SDS011;47927;42.646;23.096;2023-05-07T12:31:14;4.45;;;2.47;;
61962;SDS011;47927;42.646;23.096;2023-05-07T12:33:41;5.72;;;2.72;;
61962;SDS011;47927;42.646;23.096;2023-05-07T12:36:07;4.05;;;2.40;;
61962;SDS011;47927;42.646;23.096;2023-05-07T12:38:37;3.63;;;2.30;;
61962;SDS011;47927;42.646;23.096;2023-05-07T12:41:03;6.47;;;2.70;;
61962;SDS011;47927;42.646;23.096;2023-05-07T12:43:29;5.65;;;2.30;;
61962;SDS011;47927;42.646;23.096;2023-05-07T12:45:56;3.53;;;2.35;;
61962;SDS011;47927;42.646;23.096;2023-05-07T12:48:23;5.68;;;2.45;;
61962;SDS011;47927;42.646;23.096;2023-05-07T12:50:49;5.20;;;2.50;;
61962;SDS011;47927;42.646;23.096;2023-05-07T12:53:16;5.85;;;2.25;;
61962;SDS011;47927;42.646;23.096;2023-05-07T12:55:46;4.82;;;2.58;;
61962;SDS011;47927;42.646;23.096;2023-05-07T12:58:16;4.40;;;2.10;;
61962;SDS011;47927;42.646;23.096;2023-05-07T13:00:43;6.25;;;3.25;;
61962;SDS011;47927;42.646;23.096;2023-05-07T13:03:09;7.22;;;3.15;;
61962;SDS011;47927;42.646;23.096;2023-05-07T13:05:36;3.13;;;2.15;;
61962;SDS011;47927;42.646;23.096;2023-05-07T13:08:02;3.78;;;2.50;;
61962;SDS011;47927;42.646;23.096;2023-05-07T13:10:27;4.60;;;2.40;;
61962;SDS011;47927;42.646;23.096;2023-05-07T13:12:53;4.70;;;2.10;;
61962;SDS011;47927;42.646;23.096;2023-05-07T13:18:40;4.15;;;2.38;;
61962;SDS011;47927;42.646;23.096;2023-05-07T13:21:06;4.25;;;2.40;;
61962;SDS011;47927;42.646;23.096;2023-05-07T13:23:31;4.70;;;2.45;;
61962;SDS011;47927;42.646;23.096;2023-05-07T13:25:57;3.38;;;2.13;;
61962;SDS011;47927;42.646;23.096;2023-05-07T13:28:22;4.82;;;2.20;;
61962;SDS011;47927;42.646;23.096;2023-05-07T13:30:48;3.78;;;2.42;;
61962;SDS011;47927;42.646;23.096;2023-05-07T13:33:14;6.85;;;2.40;;
61962;SDS011;47927;42.646;23.096;2023-05-07T13:35:41;4.80;;;2.63;;
61962;SDS011;47927;42.646;23.096;2023-05-07T13:38:06;4.50;;;2.45;;
61962;SDS011;47927;42.646;23.096;2023-05-07T13:40:32;7.32;;;2.60;;
61962;SDS011;47927;42.646;23.096;2023-05-07T13:42:58;5.53;;;2.50;;
61962;SDS011;47927;42.646;23.096;2023-05-07T13:45:26;3.50;;;2.42;;
61962;SDS011;47927;42.646;23.096;2023-05-07T13:47:54;3.50;;;2.33;;
61962;SDS011;47927;42.646;23.096;2023-05-07T13:50:20;4.18;;;2.20;;
61962;SDS011;47927;42.646;23.096;2023-05-07T13:52:46;4.30;;;2.03;;
61962;SDS011;47927;42.646;23.096;2023-05-07T13:55:18;7.13;;;2.20;;
61962;SDS011;47927;42.646;23.096;2023-05-07T13:57:44;3.45;;;2.13;;
61962;SDS011;47927;42.646;23.096;2023-05-07T14:00:10;4.80;;;2.45;;
61962;SDS011;47927;42.646;23.096;2023-05-07T14:02:42;4.50;;;2.17;;
61962;SDS011;47927;42.646;23.096;2023-05-07T14:05:08;5.13;;;2.45;;
61962;SDS011;47927;42.646;23.096;2023-05-07T14:07:35;3.17;;;2.10;;
61962;SDS011;47927;42.646;23.096;2023-05-07T14:10:01;3.47;;;2.22;;
61962;SDS011;47927;42.646;23.096;2023-05-07T14:12:27;3.63;;;2.25;;
61962;SDS011;47927;42.646;23.096;2023-05-07T14:14:52;3.72;;;2.22;;
61962;SDS011;47927;42.646;23.096;2023-05-07T14:17:18;4.95;;;2.10;;
61962;SDS011;47927;42.646;23.096;2023-05-07T14:19:43;3.40;;;2.03;;
61962;SDS011;47927;42.646;23.096;2023-05-07T14:22:09;4.45;;;2.60;;
61962;SDS011;47927;42.646;23.096;2023-05-07T14:24:35;8.02;;;1.90;;
61962;SDS011;47927;42.646;23.096;2023-05-07T14:27:01;4.03;;;2.30;;
61962;SDS011;47927;42.646;23.096;2023-05-07T14:29:27;5.70;;;2.85;;
61962;SDS011;47927;42.646;23.096;2023-05-07T14:31:53;6.10;;;2.33;;
61962;SDS011;47927;42.646;23.096;2023-05-07T14:34:19;3.83;;;2.28;;
61962;SDS011;47927;42.646;23.096;2023-05-07T14:36:45;4.65;;;2.08;;
61962;SDS011;47927;42.646;23.096;2023-05-07T14:41:56;5.55;;;2.30;;
61962;SDS011;47927;42.646;23.096;2023-05-07T14:44:22;4.05;;;2.58;;
61962;SDS011;47927;42.646;23.096;2023-05-07T14:46:48;4.82;;;2.35;;
61962;SDS011;47927;42.646;23.096;2023-05-07T14:49:13;4.20;;;2.28;;
61962;SDS011;47927;42.646;23.096;2023-05-07T14:51:45;4.72;;;2.00;;
61962;SDS011;47927;42.646;23.096;2023-05-07T14:54:11;5.65;;;2.40;;
61962;SDS011;47927;42.646;23.096;2023-05-07T14:56:37;7.40;;;2.50;;
61962;SDS011;47927;42.646;23.096;2023-05-07T14:59:03;5.97;;;2.33;;
61962;SDS011;47927;42.646;23.096;2023-05-07T15:01:29;5.03;;;2.33;;
61962;SDS011;47927;42.646;23.096;2023-05-07T15:03:54;4.35;;;2.53;;
61962;SDS011;47927;42.646;23.096;2023-05-07T15:06:20;5.75;;;2.40;;
61962;SDS011;47927;42.646;23.096;2023-05-07T15:08:47;3.47;;;2.38;;
61962;SDS011;47927;42.646;23.096;2023-05-07T15:11:13;4.25;;;2.20;;
61962;SDS011;47927;42.646;23.096;2023-05-07T15:13:41;6.18;;;2.83;;